Time;durP1;ratioP1;P1;durP2;ratioP2;P2;SDS_P1;SDS_P2;PMS_P1;PMS_P2;Temp;Humidity;BMP_temperature;BMP_pressure;BME280_temperature;BME280_humidity;BME280_pressure;Samples;Min_cycle;Max_cycle;Signal;HPM_P1;HPM_P2
2021/12/14 00:00:31;;;;;;;14.90;9.68;;;;;;;;;;5072987;28;20045;-72
2021/12/14 00:02:59;;;;;;;14.50;9.65;;;;;;;;;;5074132;28;20043;-71
2021/12/14 00:05:28;;;;;;;14.25;9.50;;;;;;;;;;5073154;28;20044;-71
2021/12/14 00:07:56;;;;;;;14.48;9.63;;;;;;;;;;5072750;28;20115;-72
2021/12/14 00:13:01;;;;;;;15.63;10.43;;;;;;;;;;5073038;28;20102;-71
2021/12/14 00:15:28;;;;;;;15.57;10.02;;;;;;;;;;5073545;28;20104;-72
2021/12/14 00:17:57;;;;;;;16.73;11.00;;;;;;;;;;5072478;28;20063;-72
2021/12/14 00:20:28;;;;;;;16.17;10.40;;;;;;;;;;5073216;28;20039;-71
2021/12/14 00:25:27;;;;;;;16.13;10.57;;;;;;;;;;5073088;28;20051;-72
2021/12/14 00:27:54;;;;;;;14.90;10.57;;;;;;;;;;5073234;28;20041;-72
2021/12/14 00:30:20;;;;;;;15.00;11.00;;;;;;;;;;5071166;28;20043;-72
2021/12/14 00:32:46;;;;;;;17.08;11.35;;;;;;;;;;5073526;28;20044;-72
2021/12/14 00:35:13;;;;;;;16.92;11.40;;;;;;;;;;5071800;28;20134;-71
2021/12/14 00:37:51;;;;;;;16.77;11.40;;;;;;;;;;5072759;28;20036;-72
2021/12/14 00:40:17;;;;;;;15.60;10.98;;;;;;;;;;5072812;28;20040;-71
2021/12/14 00:42:43;;;;;;;16.70;11.02;;;;;;;;;;5073044;28;20043;-72
2021/12/14 00:45:09;;;;;;;19.80;11.88;;;;;;;;;;5071050;28;20040;-72
2021/12/14 00:47:35;;;;;;;21.50;12.15;;;;;;;;;;5072241;28;20032;-72
2021/12/14 00:50:02;;;;;;;20.02;11.93;;;;;;;;;;5071427;28;20149;-72
2021/12/14 00:52:28;;;;;;;17.85;12.10;;;;;;;;;;5072635;28;20048;-72
2021/12/14 00:54:54;;;;;;;19.05;11.93;;;;;;;;;;5072767;28;20127;-72
2021/12/14 00:57:20;;;;;;;18.27;11.75;;;;;;;;;;5072008;28;20036;-72
2021/12/14 00:59:46;;;;;;;19.83;12.10;;;;;;;;;;5072499;28;20131;-72
2021/12/14 01:02:14;;;;;;;18.75;11.85;;;;;;;;;;5072267;28;20486;-72
2021/12/14 01:04:46;;;;;;;18.95;11.65;;;;;;;;;;5071411;28;20495;-72
2021/12/14 01:07:14;;;;;;;18.90;12.45;;;;;;;;;;5072138;28;20044;-72
2021/12/14 01:09:42;;;;;;;20.75;13.23;;;;;;;;;;5071993;28;20051;-72
2021/12/14 01:12:13;;;;;;;18.75;12.60;;;;;;;;;;5070848;28;20127;-72
2021/12/14 01:14:47;;;;;;;22.80;13.48;;;;;;;;;;5072610;28;20068;-72
2021/12/14 01:17:26;;;;;;;23.90;13.75;;;;;;;;;;5058151;28;20118;-72
2021/12/14 01:19:57;;;;;;;23.23;13.68;;;;;;;;;;5074867;28;20094;-72
2021/12/14 01:22:41;;;;;;;20.67;13.33;;;;;;;;;;5072020;28;20037;-72
2021/12/14 01:25:11;;;;;;;21.40;12.57;;;;;;;;;;5072200;28;20044;-72
2021/12/14 01:27:37;;;;;;;20.02;12.45;;;;;;;;;;5071650;28;20037;-72
2021/12/14 01:30:08;;;;;;;22.85;13.35;;;;;;;;;;5072095;28;20414;-72
2021/12/14 01:32:38;;;;;;;19.38;12.82;;;;;;;;;;5071172;28;20044;-72
2021/12/14 01:35:12;;;;;;;19.30;12.90;;;;;;;;;;5057614;28;20090;-72
2021/12/14 01:37:43;;;;;;;21.63;12.85;;;;;;;;;;5072222;28;20451;-72
2021/12/14 01:40:18;;;;;;;24.33;12.63;;;;;;;;;;5070329;28;20059;-72
2021/12/14 01:42:47;;;;;;;19.35;12.40;;;;;;;;;;5072095;28;20461;-72
2021/12/14 01:45:19;;;;;;;21.55;13.63;;;;;;;;;;5071110;28;20520;-72
2021/12/14 01:47:47;;;;;;;22.95;13.63;;;;;;;;;;5071662;28;20033;-72
2021/12/14 01:50:17;;;;;;;21.20;12.57;;;;;;;;;;5071408;28;20044;-72
2021/12/14 01:52:43;;;;;;;20.83;12.95;;;;;;;;;;5071619;28;20048;-72
2021/12/14 01:55:17;;;;;;;20.15;12.20;;;;;;;;;;5070575;28;20060;-72
2021/12/14 01:57:43;;;;;;;20.83;13.73;;;;;;;;;;5071605;28;20048;-71
2021/12/14 02:00:13;;;;;;;23.63;13.50;;;;;;;;;;5070634;28;20040;-72
2021/12/14 02:02:42;;;;;;;21.02;13.50;;;;;;;;;;5071310;28;20059;-72
2021/12/14 02:05:19;;;;;;;23.25;13.93;;;;;;;;;;5070952;28;20081;-72
2021/12/14 02:07:46;;;;;;;21.33;13.65;;;;;;;;;;5071523;28;20043;-72
2021/12/14 02:10:20;;;;;;;23.38;13.23;;;;;;;;;;5070724;28;20051;-72
2021/12/14 02:12:46;;;;;;;22.55;14.07;;;;;;;;;;5071415;28;20040;-72
2021/12/14 02:15:32;;;;;;;21.95;13.45;;;;;;;;;;5063355;28;20620;-72
2021/12/14 02:17:59;;;;;;;21.52;13.63;;;;;;;;;;5071366;28;20036;-71
2021/12/14 02:20:29;;;;;;;23.65;14.38;;;;;;;;;;5070913;28;20521;-72
2021/12/14 02:22:56;;;;;;;24.77;13.45;;;;;;;;;;5070825;28;20041;-72
2021/12/14 02:25:22;;;;;;;22.50;13.82;;;;;;;;;;5071245;28;20034;-72
2021/12/14 02:27:50;;;;;;;24.55;15.02;;;;;;;;;;5070584;28;20040;-72
2021/12/14 02:30:18;;;;;;;24.77;14.68;;;;;;;;;;5071394;28;20051;-72
2021/12/14 02:32:44;;;;;;;25.02;14.30;;;;;;;;;;5071374;28;20505;-72
2021/12/14 02:35:12;;;;;;;23.40;14.77;;;;;;;;;;5068421;28;20041;-72
2021/12/14 02:37:44;;;;;;;25.13;14.80;;;;;;;;;;5071022;28;20533;-72
2021/12/14 02:40:20;;;;;;;25.80;15.98;;;;;;;;;;5074960;28;20418;-72
2021/12/14 02:42:49;;;;;;;26.15;15.43;;;;;;;;;;5075570;28;20330;-72
2021/12/14 02:45:15;;;;;;;26.75;16.13;;;;;;;;;;5074721;28;20025;-72
2021/12/14 02:47:41;;;;;;;25.30;14.88;;;;;;;;;;5075324;28;20047;-72
2021/12/14 02:50:08;;;;;;;25.13;15.50;;;;;;;;;;5074377;28;20036;-72
2021/12/14 02:52:36;;;;;;;27.08;15.88;;;;;;;;;;5073512;28;20120;-72
2021/12/14 02:55:10;;;;;;;28.77;16.63;;;;;;;;;;5074474;28;20040;-72
2021/12/14 02:57:39;;;;;;;28.60;16.48;;;;;;;;;;5075050;28;20036;-72
2021/12/14 03:00:07;;;;;;;28.95;16.73;;;;;;;;;;5074376;28;20040;-72
2021/12/14 03:02:34;;;;;;;28.67;16.15;;;;;;;;;;5071862;28;20036;-72
2021/12/14 03:05:09;;;;;;;28.10;16.75;;;;;;;;;;5099031;22;20071;-63
2021/12/14 03:07:40;;;;;;;26.55;16.63;;;;;;;;;;5086012;28;20036;-64
2021/12/14 03:12:47;;;;;;;30.77;17.48;;;;;;;;;;5081971;28;20048;-63
2021/12/14 03:15:21;;;;;;;30.08;16.85;;;;;;;;;;5086370;28;20039;-64
2021/12/14 03:17:50;;;;;;;29.90;17.40;;;;;;;;;;5090587;28;20052;-64
2021/12/14 03:20:20;;;;;;;29.90;17.35;;;;;;;;;;5092298;28;20039;-63
2021/12/14 03:22:49;;;;;;;29.83;17.95;;;;;;;;;;5084162;28;20124;-64
2021/12/14 03:25:18;;;;;;;32.05;17.80;;;;;;;;;;5091235;28;20036;-64
2021/12/14 03:27:44;;;;;;;30.73;17.27;;;;;;;;;;5094942;28;20047;-64
2021/12/14 03:30:34;;;;;;;30.25;17.50;;;;;;;;;;5093749;28;20083;-64
2021/12/14 03:33:03;;;;;;;29.77;17.52;;;;;;;;;;5091755;28;20108;-64
2021/12/14 03:35:35;;;;;;;30.23;18.88;;;;;;;;;;5094242;28;20039;-63
2021/12/14 03:38:05;;;;;;;33.97;19.73;;;;;;;;;;5094135;28;20043;-64
2021/12/14 03:40:31;;;;;;;32.13;18.85;;;;;;;;;;5093732;28;20061;-64
2021/12/14 03:42:57;;;;;;;35.05;19.75;;;;;;;;;;5087980;28;20119;-63
2021/12/14 03:45:23;;;;;;;34.20;19.05;;;;;;;;;;5089889;28;20032;-64
2021/12/14 03:47:51;;;;;;;33.08;19.48;;;;;;;;;;5094239;28;20462;-63
2021/12/14 03:50:19;;;;;;;33.45;19.75;;;;;;;;;;5093447;28;20044;-64
2021/12/14 03:52:45;;;;;;;34.30;20.88;;;;;;;;;;5094586;28;20043;-64
2021/12/14 03:58:56;;;;;;;36.65;20.65;;;;;;;;;;5092760;28;20031;-64
2021/12/14 04:01:24;;;;;;;36.85;20.75;;;;;;;;;;5088697;28;20047;-64
2021/12/14 04:03:51;;;;;;;39.20;21.20;;;;;;;;;;5092641;28;20042;-64
2021/12/14 04:06:18;;;;;;;36.13;21.95;;;;;;;;;;5086449;28;20480;-63
2021/12/14 04:08:45;;;;;;;35.15;21.00;;;;;;;;;;5092876;28;20554;-64
2021/12/14 04:11:12;;;;;;;38.92;21.65;;;;;;;;;;5093386;28;20036;-64
2021/12/14 04:13:40;;;;;;;35.60;20.63;;;;;;;;;;5092710;28;20043;-64
2021/12/14 04:16:07;;;;;;;40.63;21.80;;;;;;;;;;5092795;28;20054;-64
2021/12/14 04:18:33;;;;;;;36.83;21.80;;;;;;;;;;5093552;28;20050;-64
2021/12/14 04:21:00;;;;;;;38.03;21.85;;;;;;;;;;5093305;28;20066;-63
2021/12/14 04:23:29;;;;;;;39.00;21.25;;;;;;;;;;5093784;28;20052;-64
2021/12/14 04:25:57;;;;;;;37.20;21.17;;;;;;;;;;5093699;28;20028;-64
2021/12/14 04:28:26;;;;;;;37.90;22.25;;;;;;;;;;5093390;28;20059;-64
2021/12/14 04:34:17;;;;;;;39.60;22.52;;;;;;;;;;5092833;28;20089;-64
2021/12/14 04:36:44;;;;;;;40.45;22.25;;;;;;;;;;5093515;28;20064;-64
2021/12/14 04:53:02;;;;;;;42.75;23.42;;;;;;;;;;5093709;28;20056;-64
2021/12/14 04:55:28;;;;;;;43.22;23.35;;;;;;;;;;5083522;28;20469;-63
2021/12/14 04:57:54;;;;;;;42.33;23.60;;;;;;;;;;5072672;28;20036;-64
2021/12/14 05:00:27;;;;;;;41.20;24.02;;;;;;;;;;5088365;28;20109;-64
2021/12/14 05:02:56;;;;;;;43.33;22.95;;;;;;;;;;5077811;28;20037;-64
2021/12/14 05:05:27;;;;;;;42.05;24.23;;;;;;;;;;5083609;28;20040;-63
2021/12/14 05:09:20;;;;;;;43.80;24.23;;;;;;;;;;5091065;28;20040;-64
2021/12/14 05:10:58;;;;;;;44.65;25.13;;;;;;;;;;5085032;28;20052;-64
2021/12/14 05:13:26;;;;;;;40.17;24.00;;;;;;;;;;5092155;28;20047;-63
2021/12/14 05:15:52;;;;;;;44.25;24.27;;;;;;;;;;5091086;28;20048;-64
2021/12/14 05:18:18;;;;;;;44.40;24.20;;;;;;;;;;5092208;28;20032;-64
2021/12/14 05:20:46;;;;;;;43.85;23.67;;;;;;;;;;5090454;28;20112;-64
2021/12/14 05:23:18;;;;;;;41.38;23.35;;;;;;;;;;5073925;28;20056;-64
2021/12/14 05:25:44;;;;;;;44.17;24.55;;;;;;;;;;5087309;28;20555;-63
2021/12/14 05:28:14;;;;;;;46.92;25.08;;;;;;;;;;5092483;28;20044;-63
2021/12/14 05:30:42;;;;;;;42.10;24.20;;;;;;;;;;5091218;28;20048;-64
2021/12/14 05:33:09;;;;;;;41.75;23.95;;;;;;;;;;5092648;28;20035;-63
2021/12/14 05:35:40;;;;;;;46.50;25.05;;;;;;;;;;5090298;28;20035;-64
2021/12/14 05:38:16;;;;;;;46.58;24.90;;;;;;;;;;5091355;28;20055;-63
2021/12/14 05:40:58;;;;;;;46.28;25.70;;;;;;;;;;5091565;28;20044;-64
2021/12/14 05:43:26;;;;;;;46.47;24.80;;;;;;;;;;5092278;28;20040;-64
2021/12/14 05:45:54;;;;;;;44.35;25.45;;;;;;;;;;5090281;28;20042;-64
2021/12/14 05:48:21;;;;;;;49.53;25.13;;;;;;;;;;5091456;28;20028;-64
2021/12/14 05:50:50;;;;;;;45.67;25.90;;;;;;;;;;5092019;28;20032;-64
2021/12/14 05:53:24;;;;;;;45.08;25.63;;;;;;;;;;5092148;28;20089;-64
2021/12/14 05:55:50;;;;;;;44.03;25.08;;;;;;;;;;5090899;28;20115;-64
2021/12/14 05:58:17;;;;;;;45.15;25.92;;;;;;;;;;5090362;28;20032;-64
2021/12/14 06:00:46;;;;;;;46.78;26.35;;;;;;;;;;5090866;28;20044;-63
2021/12/14 06:03:21;;;;;;;48.65;26.90;;;;;;;;;;5089706;28;20482;-64
2021/12/14 06:05:47;;;;;;;48.53;27.48;;;;;;;;;;5084658;28;20113;-64
2021/12/14 06:08:21;;;;;;;48.97;26.80;;;;;;;;;;5088356;28;20528;-63
2021/12/14 06:10:48;;;;;;;53.05;28.05;;;;;;;;;;5086191;28;20036;-64
2021/12/14 06:13:17;;;;;;;53.70;28.08;;;;;;;;;;5080005;28;20131;-64
2021/12/14 06:15:43;;;;;;;59.08;28.55;;;;;;;;;;5091561;28;20054;-64
2021/12/14 06:18:09;;;;;;;51.45;28.08;;;;;;;;;;5090923;28;20146;-64
2021/12/14 06:20:35;;;;;;;56.03;29.63;;;;;;;;;;5090926;28;20054;-64
2021/12/14 06:23:01;;;;;;;53.42;28.40;;;;;;;;;;5091059;28;20631;-64
2021/12/14 06:25:28;;;;;;;55.38;28.58;;;;;;;;;;5085942;28;20075;-63
2021/12/14 06:27:57;;;;;;;56.88;29.50;;;;;;;;;;5091775;28;20127;-63
2021/12/14 06:30:27;;;;;;;54.15;29.38;;;;;;;;;;5091764;28;20039;-64
2021/12/14 06:32:55;;;;;;;55.67;28.83;;;;;;;;;;5089908;28;20093;-64
2021/12/14 06:35:28;;;;;;;59.83;30.42;;;;;;;;;;5091627;28;20273;-64
2021/12/14 06:38:07;;;;;;;58.00;29.73;;;;;;;;;;5074530;28;20043;-64
2021/12/14 06:40:39;;;;;;;60.85;31.02;;;;;;;;;;5091048;28;20115;-64
2021/12/14 06:43:08;;;;;;;62.65;31.58;;;;;;;;;;5091256;28;20552;-63
2021/12/14 06:45:40;;;;;;;59.13;30.70;;;;;;;;;;5091672;28;20371;-64
2021/12/14 06:48:12;;;;;;;60.28;30.17;;;;;;;;;;5102717;28;20074;-64
2021/12/14 06:50:43;;;;;;;65.28;32.28;;;;;;;;;;5111474;28;20520;-64
2021/12/14 06:53:11;;;;;;;60.17;31.33;;;;;;;;;;5081401;28;20050;-64
2021/12/14 06:55:38;;;;;;;66.78;32.92;;;;;;;;;;5084090;28;20383;-64
2021/12/14 06:58:15;;;;;;;64.22;31.85;;;;;;;;;;5091506;28;20036;-63
2021/12/14 07:00:45;;;;;;;61.58;30.67;;;;;;;;;;5090195;28;20044;-63
2021/12/14 07:03:11;;;;;;;60.75;31.85;;;;;;;;;;5089592;28;20082;-64
2021/12/14 07:05:38;;;;;;;64.85;33.25;;;;;;;;;;5090050;28;20040;-64
2021/12/14 07:08:09;;;;;;;65.05;31.95;;;;;;;;;;5085944;28;20113;-64
2021/12/14 07:10:36;;;;;;;69.38;32.55;;;;;;;;;;5087925;28;20036;-63
2021/12/14 07:13:09;;;;;;;64.03;31.67;;;;;;;;;;5080154;28;20506;-63
2021/12/14 07:15:36;;;;;;;64.90;31.98;;;;;;;;;;5087971;28;20115;-64
2021/12/14 07:18:04;;;;;;;67.57;32.42;;;;;;;;;;5086349;28;20056;-64
2021/12/14 07:20:32;;;;;;;68.57;32.47;;;;;;;;;;5091322;28;20051;-63
2021/12/14 07:23:04;;;;;;;69.15;34.78;;;;;;;;;;5092519;28;20042;-64
2021/12/14 07:25:33;;;;;;;69.05;32.67;;;;;;;;;;5086491;28;20055;-64
2021/12/14 07:27:59;;;;;;;72.15;34.03;;;;;;;;;;5083630;28;20047;-65
2021/12/14 07:30:24;;;;;;;72.95;34.30;;;;;;;;;;5092884;28;20028;-64
2021/12/14 07:33:03;;;;;;;69.72;33.45;;;;;;;;;;5081965;28;20125;-64
2021/12/14 07:35:32;;;;;;;68.20;33.65;;;;;;;;;;5083924;28;20041;-64
2021/12/14 07:38:01;;;;;;;74.88;34.28;;;;;;;;;;5083772;28;20440;-65
2021/12/14 07:40:39;;;;;;;75.15;34.15;;;;;;;;;;5078953;28;20383;-65
2021/12/14 07:43:06;;;;;;;68.72;33.85;;;;;;;;;;5087138;28;20555;-64
2021/12/14 07:45:32;;;;;;;65.63;31.58;;;;;;;;;;5090839;28;20125;-64
2021/12/14 07:47:58;;;;;;;67.07;33.78;;;;;;;;;;5094302;28;20123;-64
2021/12/14 07:50:45;;;;;;;69.18;34.10;;;;;;;;;;5094158;28;20116;-64
2021/12/14 07:53:11;;;;;;;69.47;34.00;;;;;;;;;;5093999;28;20111;-64
2021/12/14 07:55:39;;;;;;;75.45;34.85;;;;;;;;;;5087032;28;20136;-65
2021/12/14 07:58:05;;;;;;;76.50;35.90;;;;;;;;;;5083333;28;20490;-64
2021/12/14 08:00:35;;;;;;;68.93;34.00;;;;;;;;;;5090384;28;20048;-64
2021/12/14 08:03:02;;;;;;;71.10;33.75;;;;;;;;;;5094047;28;20497;-64
2021/12/14 08:05:30;;;;;;;71.82;36.30;;;;;;;;;;5093659;28;20036;-64
2021/12/14 08:07:56;;;;;;;70.18;34.65;;;;;;;;;;5093032;28;20048;-64
2021/12/14 08:10:25;;;;;;;78.68;35.83;;;;;;;;;;5089822;28;20444;-64
2021/12/14 08:13:03;;;;;;;70.97;33.40;;;;;;;;;;5082906;28;20517;-64
2021/12/14 08:15:38;;;;;;;76.60;34.50;;;;;;;;;;5092521;28;20417;-64
2021/12/14 08:18:07;;;;;;;67.95;33.72;;;;;;;;;;5093584;28;20047;-64
2021/12/14 08:20:33;;;;;;;74.88;33.60;;;;;;;;;;5084152;28;20040;-65
2021/12/14 08:23:10;;;;;;;80.40;35.90;;;;;;;;;;5083899;28;20550;-64
2021/12/14 08:25:36;;;;;;;73.50;33.67;;;;;;;;;;5081447;28;20040;-65
2021/12/14 08:28:05;;;;;;;75.00;34.47;;;;;;;;;;5086107;28;20040;-64
2021/12/14 08:30:32;;;;;;;75.35;35.15;;;;;;;;;;5072955;28;20048;-64
2021/12/14 08:32:58;;;;;;;83.63;36.50;;;;;;;;;;5078016;28;20040;-64
2021/12/14 08:35:24;;;;;;;73.90;34.70;;;;;;;;;;5086375;28;20579;-64
2021/12/14 08:37:54;;;;;;;72.30;34.28;;;;;;;;;;5091931;28;20127;-65
2021/12/14 08:40:23;;;;;;;78.03;36.05;;;;;;;;;;5080054;28;20045;-64
2021/12/14 08:43:02;;;;;;;80.70;34.90;;;;;;;;;;5076426;28;20052;-64
2021/12/14 08:45:34;;;;;;;82.93;35.38;;;;;;;;;;5088313;28;20039;-65
2021/12/14 08:48:03;;;;;;;82.82;36.70;;;;;;;;;;5095673;28;20493;-65
2021/12/14 08:50:30;;;;;;;81.15;35.75;;;;;;;;;;5112068;28;20043;-65
2021/12/14 08:52:57;;;;;;;80.28;35.15;;;;;;;;;;5108089;28;20036;-64
2021/12/14 08:55:24;;;;;;;84.40;36.95;;;;;;;;;;5091634;28;20436;-64
2021/12/14 08:57:50;;;;;;;88.43;37.25;;;;;;;;;;5085009;28;20060;-64
2021/12/14 09:00:21;;;;;;;80.60;36.00;;;;;;;;;;5090427;28;20036;-64
2021/12/14 09:02:51;;;;;;;79.65;35.13;;;;;;;;;;5085033;28;20086;-64
2021/12/14 09:05:20;;;;;;;71.30;34.30;;;;;;;;;;5117454;22;20062;-72
2021/12/14 09:07:46;;;;;;;80.03;35.50;;;;;;;;;;5120333;27;20024;-72
2021/12/14 09:10:15;;;;;;;77.53;34.67;;;;;;;;;;5109167;27;20097;-72
2021/12/14 09:12:44;;;;;;;71.65;34.97;;;;;;;;;;5116781;27;20043;-73
2021/12/14 09:15:12;;;;;;;78.78;35.03;;;;;;;;;;5099760;28;20043;-73
2021/12/14 09:17:38;;;;;;;73.28;34.10;;;;;;;;;;5092172;28;20047;-74
2021/12/14 09:20:08;;;;;;;74.55;34.30;;;;;;;;;;5087594;28;20064;-72
2021/12/14 09:22:36;;;;;;;75.47;35.88;;;;;;;;;;5092381;28;20048;-72
2021/12/14 09:25:03;;;;;;;73.00;34.78;;;;;;;;;;5085115;28;20127;-72
2021/12/14 09:27:31;;;;;;;71.40;35.20;;;;;;;;;;5088275;28;20047;-73
2021/12/14 09:29:57;;;;;;;71.20;33.70;;;;;;;;;;5080021;28;20040;-72
2021/12/14 09:32:27;;;;;;;73.13;35.30;;;;;;;;;;5091619;28;20073;-72
2021/12/14 09:34:54;;;;;;;73.25;36.47;;;;;;;;;;5091614;28;20123;-73
2021/12/14 09:37:20;;;;;;;71.47;35.05;;;;;;;;;;5092022;28;20039;-73
2021/12/14 09:39:48;;;;;;;70.75;33.88;;;;;;;;;;5094581;28;20413;-71
2021/12/14 09:42:16;;;;;;;68.25;34.40;;;;;;;;;;5088688;28;20035;-73
2021/12/14 09:44:44;;;;;;;69.10;33.08;;;;;;;;;;5091852;28;20614;-73
2021/12/14 09:47:13;;;;;;;73.15;35.13;;;;;;;;;;5091343;28;20406;-73
2021/12/14 09:49:40;;;;;;;70.32;34.25;;;;;;;;;;5072330;28;20398;-73
2021/12/14 09:52:11;;;;;;;73.50;35.83;;;;;;;;;;5090747;28;20119;-72
2021/12/14 09:54:38;;;;;;;68.32;32.72;;;;;;;;;;5091139;28;20498;-73
2021/12/14 09:57:24;;;;;;;72.38;34.17;;;;;;;;;;5089389;28;20085;-73
2021/12/14 09:59:51;;;;;;;72.93;34.60;;;;;;;;;;5086622;28;20040;-73
2021/12/14 10:02:20;;;;;;;68.60;33.95;;;;;;;;;;5090762;28;20554;-73
2021/12/14 10:04:50;;;;;;;69.70;34.03;;;;;;;;;;5090861;28;20053;-73
2021/12/14 10:07:17;;;;;;;73.28;35.75;;;;;;;;;;5088338;28;20032;-73
2021/12/14 10:09:46;;;;;;;72.40;34.17;;;;;;;;;;5096957;28;20042;-73
2021/12/14 10:12:48;;;;;;;71.22;34.03;;;;;;;;;;5093087;28;20052;-73
2021/12/14 10:15:08;;;;;;;63.58;32.60;;;;;;;;;;5089920;28;20400;-73
2021/12/14 10:17:34;;;;;;;69.53;33.53;;;;;;;;;;5091562;28;20159;-72
2021/12/14 10:20:00;;;;;;;69.45;34.30;;;;;;;;;;5095589;28;20462;-73
2021/12/14 10:22:31;;;;;;;73.70;34.55;;;;;;;;;;5096237;28;20385;-73
2021/12/14 10:25:01;;;;;;;64.65;32.38;;;;;;;;;;5091154;28;20111;-73
2021/12/14 10:27:28;;;;;;;68.75;33.55;;;;;;;;;;5089048;28;20386;-72
2021/12/14 10:29:55;;;;;;;67.00;32.88;;;;;;;;;;5090147;28;20032;-72
2021/12/14 10:32:28;;;;;;;64.88;32.30;;;;;;;;;;5091436;28;20089;-72
2021/12/14 10:34:58;;;;;;;65.65;33.58;;;;;;;;;;5091028;28;20078;-72
2021/12/14 10:37:36;;;;;;;67.15;33.75;;;;;;;;;;5097329;28;20043;-72
2021/12/14 10:45:34;;;;;;;64.35;30.75;;;;;;;;;;5082526;28;20502;-72
2021/12/14 10:48:00;;;;;;;69.50;33.67;;;;;;;;;;5082362;28;20066;-72
2021/12/14 10:50:27;;;;;;;67.32;32.00;;;;;;;;;;5075816;28;20032;-70
2021/12/14 10:52:53;;;;;;;64.70;31.88;;;;;;;;;;5093686;28;20085;-72
2021/12/14 10:55:25;;;;;;;62.40;30.83;;;;;;;;;;5089266;28;20039;-70
2021/12/14 10:57:52;;;;;;;66.30;31.58;;;;;;;;;;5104968;28;20043;-70
2021/12/14 11:00:28;;;;;;;69.97;33.42;;;;;;;;;;5092018;28;20039;-71
2021/12/14 11:03:01;;;;;;;67.28;31.98;;;;;;;;;;5098205;28;20036;-72
2021/12/14 11:05:32;;;;;;;62.58;29.75;;;;;;;;;;5087014;28;20409;-71
2021/12/14 11:08:34;;;;;;;67.53;33.10;;;;;;;;;;5091201;28;20573;-72
2021/12/14 11:11:02;;;;;;;68.50;31.65;;;;;;;;;;5086598;28;20048;-72
2021/12/14 11:13:37;;;;;;;68.03;31.95;;;;;;;;;;5089601;28;20051;-72
2021/12/14 11:16:03;;;;;;;68.25;31.35;;;;;;;;;;5090304;28;20037;-72
2021/12/14 11:18:29;;;;;;;73.22;34.40;;;;;;;;;;5091237;28;20098;-72
2021/12/14 11:21:00;;;;;;;76.07;33.10;;;;;;;;;;5093842;28;20497;-71
2021/12/14 11:23:27;;;;;;;74.20;33.20;;;;;;;;;;5094774;28;20044;-71
2021/12/14 11:26:00;;;;;;;73.05;31.30;;;;;;;;;;5094648;28;20043;-72
2021/12/14 11:28:34;;;;;;;67.07;29.85;;;;;;;;;;5094760;28;20036;-72
2021/12/14 11:31:06;;;;;;;74.25;31.58;;;;;;;;;;5105189;28;20089;-73
2021/12/14 11:33:34;;;;;;;74.43;32.53;;;;;;;;;;5092704;28;20075;-72
2021/12/14 11:36:10;;;;;;;76.50;31.90;;;;;;;;;;5111100;28;20524;-72
2021/12/14 11:38:39;;;;;;;80.90;32.45;;;;;;;;;;5110214;28;20114;-72
2021/12/14 11:41:26;;;;;;;83.43;34.20;;;;;;;;;;5111317;28;20038;-72
2021/12/14 11:43:54;;;;;;;88.07;35.92;;;;;;;;;;5095299;28;20036;-73
2021/12/14 11:46:20;;;;;;;81.80;32.90;;;;;;;;;;5103053;28;20058;-73
2021/12/14 11:48:46;;;;;;;75.88;33.42;;;;;;;;;;5083468;28;20028;-72
2021/12/14 11:51:12;;;;;;;86.90;35.47;;;;;;;;;;5095143;28;20028;-72
2021/12/14 11:53:39;;;;;;;93.85;34.45;;;;;;;;;;5103398;28;20492;-73
2021/12/14 11:56:14;;;;;;;71.13;31.42;;;;;;;;;;5094742;28;20042;-73
2021/12/14 11:58:55;;;;;;;89.25;34.67;;;;;;;;;;5099430;28;20066;-73
2021/12/14 12:01:32;;;;;;;74.25;33.13;;;;;;;;;;5098536;28;20098;-74
2021/12/14 12:04:06;;;;;;;76.85;32.50;;;;;;;;;;5084470;28;20066;-74
2021/12/14 12:06:46;;;;;;;77.63;31.88;;;;;;;;;;5095936;28;20040;-74
2021/12/14 12:09:32;;;;;;;76.97;31.85;;;;;;;;;;5108324;28;20501;-74
2021/12/14 12:12:04;;;;;;;76.82;31.63;;;;;;;;;;5095692;28;20040;-74
2021/12/14 12:14:30;;;;;;;73.25;32.13;;;;;;;;;;5097293;28;20040;-75
2021/12/14 12:17:14;;;;;;;74.78;32.70;;;;;;;;;;5101667;28;20054;-74
2021/12/14 12:19:41;;;;;;;78.32;32.13;;;;;;;;;;5090541;28;20502;-74
2021/12/14 12:22:12;;;;;;;66.38;29.40;;;;;;;;;;5097466;28;20497;-74
2021/12/14 12:24:41;;;;;;;84.78;32.25;;;;;;;;;;5091738;28;20036;-74
2021/12/14 12:27:19;;;;;;;62.03;28.27;;;;;;;;;;5094685;28;20088;-74
2021/12/14 12:29:45;;;;;;;72.03;29.52;;;;;;;;;;5099216;28;20123;-73
2021/12/14 12:32:23;;;;;;;74.93;31.40;;;;;;;;;;5091594;28;20127;-73
2021/12/14 12:34:50;;;;;;;68.68;28.75;;;;;;;;;;5093474;28;20428;-73
2021/12/14 12:37:17;;;;;;;70.63;27.80;;;;;;;;;;5093700;28;20039;-73
2021/12/14 12:39:48;;;;;;;68.78;28.58;;;;;;;;;;5075687;28;20074;-73
2021/12/14 12:42:16;;;;;;;63.30;27.17;;;;;;;;;;5093185;28;20032;-73
2021/12/14 12:44:43;;;;;;;69.70;28.55;;;;;;;;;;5090472;28;20478;-73
2021/12/14 12:47:12;;;;;;;73.80;28.38;;;;;;;;;;5093279;28;20096;-73
2021/12/14 12:49:46;;;;;;;71.00;27.38;;;;;;;;;;5093344;28;20032;-72
2021/12/14 12:52:15;;;;;;;68.05;27.77;;;;;;;;;;5093014;28;20115;-72
2021/12/14 12:54:57;;;;;;;70.43;26.63;;;;;;;;;;5092740;28;20036;-72
2021/12/14 12:57:28;;;;;;;54.58;24.70;;;;;;;;;;5073121;28;20044;-73
2021/12/14 12:59:57;;;;;;;65.00;25.30;;;;;;;;;;5073083;28;20090;-72
2021/12/14 13:02:30;;;;;;;66.57;24.77;;;;;;;;;;5090533;28;20467;-72
2021/12/14 13:04:58;;;;;;;58.63;23.27;;;;;;;;;;5092710;28;20074;-73
2021/12/14 13:07:31;;;;;;;60.30;25.23;;;;;;;;;;5092888;28;20371;-73
2021/12/14 13:10:00;;;;;;;60.40;23.98;;;;;;;;;;5093296;28;20089;-73
2021/12/14 13:12:45;;;;;;;47.17;21.58;;;;;;;;;;5092531;28;20040;-73
2021/12/14 13:15:33;;;;;;;51.05;22.73;;;;;;;;;;5092477;28;20051;-73
2021/12/14 13:18:34;;;;;;;58.25;22.65;;;;;;;;;;5092303;28;20081;-73
2021/12/14 13:21:04;;;;;;;56.75;22.98;;;;;;;;;;5009046;28;20030;-72
2021/12/14 13:23:44;;;;;;;49.63;22.10;;;;;;;;;;5077611;28;20044;-73
2021/12/14 13:26:21;;;;;;;57.05;22.95;;;;;;;;;;5087736;28;20115;-73
2021/12/14 13:28:47;;;;;;;49.95;22.42;;;;;;;;;;5089970;28;20117;-73
2021/12/14 13:31:27;;;;;;;58.95;23.38;;;;;;;;;;5091026;28;20028;-73
2021/12/14 13:33:53;;;;;;;49.17;22.58;;;;;;;;;;5085924;28;20042;-73
2021/12/14 13:36:19;;;;;;;56.53;22.95;;;;;;;;;;5088959;28;20473;-73
2021/12/14 13:38:45;;;;;;;57.45;23.23;;;;;;;;;;5087276;28;20089;-72
2021/12/14 13:41:28;;;;;;;57.20;23.33;;;;;;;;;;5086780;28;20036;-73
2021/12/14 13:43:54;;;;;;;53.08;23.73;;;;;;;;;;5087322;28;20051;-72
2021/12/14 13:46:20;;;;;;;52.60;21.38;;;;;;;;;;5090621;28;20028;-72
2021/12/14 13:48:46;;;;;;;56.30;23.83;;;;;;;;;;5094412;28;20023;-72
2021/12/14 13:51:14;;;;;;;60.75;24.10;;;;;;;;;;5093656;28;20119;-73
2021/12/14 13:53:41;;;;;;;61.20;23.35;;;;;;;;;;5091871;28;20405;-73
2021/12/14 13:56:12;;;;;;;51.83;23.52;;;;;;;;;;5091837;28;20081;-72
2021/12/14 13:58:38;;;;;;;66.93;25.58;;;;;;;;;;5092025;28;20067;-73
2021/12/14 14:01:14;;;;;;;57.25;23.70;;;;;;;;;;5090980;28;20040;-72
2021/12/14 14:03:42;;;;;;;59.22;24.50;;;;;;;;;;5089381;28;20494;-72
2021/12/14 14:06:11;;;;;;;61.05;24.42;;;;;;;;;;5085125;28;20058;-73
2021/12/14 14:08:41;;;;;;;61.58;24.50;;;;;;;;;;5085566;28;20044;-73
2021/12/14 14:11:18;;;;;;;62.92;24.30;;;;;;;;;;5083078;28;20036;-71
2021/12/14 14:13:44;;;;;;;68.75;24.88;;;;;;;;;;5085108;28;20040;-73
2021/12/14 14:16:10;;;;;;;63.38;23.70;;;;;;;;;;5088622;28;20509;-73
2021/12/14 14:18:39;;;;;;;69.47;25.50;;;;;;;;;;5090652;28;20493;-73
2021/12/14 14:21:08;;;;;;;61.50;23.92;;;;;;;;;;5065318;28;20410;-73
2021/12/14 14:23:42;;;;;;;61.42;24.63;;;;;;;;;;5091306;28;20040;-73
2021/12/14 14:26:13;;;;;;;59.60;23.30;;;;;;;;;;5082607;28;20110;-73
2021/12/14 14:28:44;;;;;;;59.35;24.67;;;;;;;;;;5090458;28;20100;-73
2021/12/14 14:31:10;;;;;;;;;;;;;;;;;;5091588;28;20051;-73
2021/12/14 14:33:44;;;;;;;57.05;24.05;;;;;;;;;;5091332;28;19916;-73
2021/12/14 14:36:22;;;;;;;59.05;23.48;;;;;;;;;;5091516;28;20036;-74
2021/12/14 14:38:49;;;;;;;56.13;23.60;;;;;;;;;;5091688;28;20028;-73
2021/12/14 14:41:15;;;;;;;58.33;24.15;;;;;;;;;;5090988;28;20032;-73
2021/12/14 14:43:59;;;;;;;58.33;22.80;;;;;;;;;;5089320;28;20044;-73
2021/12/14 14:46:41;;;;;;;50.63;22.80;;;;;;;;;;5071324;28;20513;-73
2021/12/14 14:49:10;;;;;;;65.43;24.20;;;;;;;;;;5053507;28;20495;-72
2021/12/14 14:51:51;;;;;;;59.13;23.38;;;;;;;;;;5079182;28;20047;-73
2021/12/14 14:54:35;;;;;;;59.25;22.67;;;;;;;;;;5091355;28;20452;-73
2021/12/14 14:57:01;;;;;;;58.67;22.92;;;;;;;;;;5091145;28;20074;-73
2021/12/14 14:59:27;;;;;;;63.17;22.90;;;;;;;;;;5091304;28;20036;-72
2021/12/14 15:01:52;;;;;;;57.40;23.52;;;;;;;;;;5091027;28;20126;-73
2021/12/14 15:04:20;;;;;;;57.88;23.35;;;;;;;;;;5107366;22;20048;-63
2021/12/14 15:06:47;;;;;;;62.83;23.45;;;;;;;;;;5110687;28;20035;-63
2021/12/14 15:09:17;;;;;;;60.65;23.25;;;;;;;;;;5099115;28;20047;-62